Marlborough, NH (03455)

7:42 AM EDT on April 18, 2015 (GMT -0400)
Court St. | | Change Station
CLOSE
Current Station
Personal Weather Station
Location: Keene, NH
Elevation: 522 ft
Nearby Weather Stations
Active Advisory: Special Statement

Elev 522 ft 42.94 °N, 72.29 °W | Updated 3 minutes ago

Partly Cloudy
Partly Cloudy
42.4 °F
Feels Like 42 °F
N
2.2
Wind Variable Wind from West

Today
High -- | Low -- °F
--% Chance of Precip.
Yesterday
High -- | Low -- °F
Precip. -- in
6:02 AM 7:34 PM
Waning Crescent, 0% visible
Pressure 29.97 in
Visibility 0.2 miles
Clouds Overcast 100 ft
Windchill 42 °F
Dew Point 40 °F
Humidity 91%
Rainfall 0.00 in
Snow Depth Not available.
UV 0 out of 12
Pollen 8.90 out of 12
Air Quality Not available.
Flu Activity Regional
METAR KEEN 181135Z AUTO 00000KT M1/4SM OVC001 03/02 A2997 RMK AO1

More Conditions Fewer Conditions

Pressure 29.97 in
Visibility 0.2 miles
Clouds Overcast 100 ft
Windchill 42 °F
Dew Point 40 °F
Humidity 91%
Rainfall 0.00 in
Snow Depth Not available.
UV 0 out of 12
Pollen 8.90 out of 12
Air Quality Not available.
Flu Activity Regional
METAR KEEN 181135Z AUTO 00000KT M1/4SM OVC001 03/02 A2997 RMK AO1

More Conditions Fewer Conditions

10-Day Weather Forecast

Almanac

Astronomy

Apr. 18, 2015 Rise Set
Actual Time
Civil Twilight
Nautical Twilight
Astronomical Twilight
Moon
Length of Visible Light
Length of Day
Tomorrow will be .
, % of the Moon is Illuminated

Today's Extremes

State Highs State Lows

Community

WunderPhotos

Upload Photos

1,814,371 photos uploaded!

WunderBlogs® & News

Nearby

Air Quality

  Air Quality AQ Index Pollutant
Not available.

Snow Depth

Station Depth Elevation

Earthquake Activity

City Distance Mag. Time & Date
Minimum magnitude displayed is 2.5.

Coastal Water Temperatures

Place Temperature

Stations

Nearby Weather Stations

Station Location Temp. Windchill Dew Point Humidity Wind Precip. Elev Updated Type
                   
Special Statement
Statement as of 3:37 AM EDT on April 18, 2015

... Conditions could briefly approach red flag this afternoon
across southwest New Hampshire...

Only widely scattered showers are expected across southwest New
Hampshire today. The combination of warm afternoon temperatures...
minimum relative humidity values near 30 percent... and a
developing west wind of 10 mph gusting to around 20 mph at
times... will produce an elevated fire spread potential. While
we're expected to fall short of red flag criteria there... extreme
caution should be used if open burning today.



Schwibs